Time;durP1;ratioP1;P1;durP2;ratioP2;P2;SDS_P1;SDS_P2;PMS_P1;PMS_P2;Temp;Humidity;BMP_temperature;BMP_pressure;BME280_temperature;BME280_humidity;BME280_pressure;Samples;Min_cycle;Max_cycle;Signal;HPM_P1;HPM_P2
2022/03/20 00:01:23;;;;;;;24.92;10.30;;;;;;;-2.38;100.00;101114.84;5150695;27;20051;-65
2022/03/20 00:03:49;;;;;;;25.23;10.55;;;;;;;-2.41;100.00;101116.13;5151273;27;20046;-65
2022/03/20 00:06:15;;;;;;;22.08;10.63;;;;;;;-2.35;100.00;101108.19;5151056;27;20057;-65
2022/03/20 00:08:42;;;;;;;22.38;10.48;;;;;;;-2.31;100.00;101109.38;5151361;27;20417;-65
2022/03/20 00:11:09;;;;;;;31.35;11.82;;;;;;;-2.32;100.00;101105.88;5150893;27;20084;-65
2022/03/20 00:13:35;;;;;;;21.80;11.55;;;;;;;-2.37;100.00;101117.31;5151286;27;20046;-65
2022/03/20 00:16:01;;;;;;;19.95;9.90;;;;;;;-2.40;100.00;101111.56;5151130;27;20047;-65
2022/03/20 00:18:27;;;;;;;25.95;10.93;;;;;;;-2.34;100.00;101094.53;5151281;27;20049;-65
2022/03/20 00:20:55;;;;;;;30.50;11.07;;;;;;;-2.32;100.00;101102.38;5151185;27;20046;-65
2022/03/20 00:23:23;;;;;;;26.23;11.27;;;;;;;-2.34;100.00;101105.28;5151047;27;20054;-65
2022/03/20 00:25:51;;;;;;;27.60;10.18;;;;;;;-2.40;100.00;101112.41;5150916;27;20058;-65
2022/03/20 00:28:19;;;;;;;23.25;10.23;;;;;;;-2.40;100.00;101112.41;5150844;27;20053;-65
2022/03/20 00:30:47;;;;;;;18.42;9.82;;;;;;;-2.35;100.00;101106.34;5151067;27;20102;-65
2022/03/20 00:33:13;;;;;;;24.20;10.20;;;;;;;-2.38;100.00;101107.59;5151066;27;20055;-65
2022/03/20 00:35:40;;;;;;;27.75;11.00;;;;;;;-2.34;100.00;101104.47;5150825;27;20430;-65
2022/03/20 00:38:07;;;;;;;23.77;10.07;;;;;;;-2.34;100.00;101099.91;5150652;27;20046;-65
2022/03/20 00:40:34;;;;;;;22.17;8.90;;;;;;;-2.39;100.00;101097.09;5151138;27;20452;-65
2022/03/20 00:43:00;;;;;;;22.05;10.02;;;;;;;-2.38;100.00;101094.19;5150581;27;20050;-65
2022/03/20 00:45:28;;;;;;;24.40;10.38;;;;;;;-2.49;100.00;101095.00;5150950;27;20087;-65
2022/03/20 00:47:54;;;;;;;22.40;9.23;;;;;;;-2.52;100.00;101095.44;5150617;27;20082;-65
2022/03/20 00:50:21;;;;;;;19.50;9.45;;;;;;;-2.45;100.00;101098.84;5150838;27;20178;-65
2022/03/20 00:52:47;;;;;;;18.27;8.18;;;;;;;-2.42;100.00;101092.19;5150234;27;20050;-65
2022/03/20 00:55:14;;;;;;;21.23;9.13;;;;;;;-2.35;100.00;101092.91;5150309;27;20576;-66
2022/03/20 00:57:40;;;;;;;27.02;9.38;;;;;;;-2.40;100.00;101088.22;5150754;27;20050;-65
2022/03/20 01:00:08;;;;;;;26.67;8.90;;;;;;;-2.38;100.00;101088.81;5150499;27;20050;-65
2022/03/20 01:02:38;;;;;;;35.75;13.05;;;;;;;-2.34;100.00;101077.59;5150666;27;20062;-65
2022/03/20 01:05:06;;;;;;;23.38;10.45;;;;;;;-2.42;100.00;101076.91;5150431;27;20051;-65
2022/03/20 01:07:32;;;;;;;23.27;10.32;;;;;;;-2.48;100.00;101074.31;5150578;27;20058;-65
2022/03/20 01:10:01;;;;;;;25.48;9.02;;;;;;;-2.55;100.00;101087.84;5150383;27;20099;-65
2022/03/20 01:12:27;;;;;;;22.50;9.93;;;;;;;-2.59;100.00;101092.06;5152019;27;20051;-65
2022/03/20 01:14:53;;;;;;;21.25;9.25;;;;;;;-2.59;100.00;101089.38;5153806;27;20046;-65
2022/03/20 01:17:21;;;;;;;20.58;9.30;;;;;;;-2.64;100.00;101100.78;5153989;27;20057;-65
2022/03/20 01:19:47;;;;;;;28.88;9.85;;;;;;;-2.59;100.00;101096.59;5153764;27;20133;-65
2022/03/20 01:22:14;;;;;;;20.50;9.48;;;;;;;-2.61;100.00;101099.50;5154167;27;20114;-65
2022/03/20 01:24:40;;;;;;;23.08;9.40;;;;;;;-2.58;100.00;101098.25;5153671;27;20046;-65
2022/03/20 01:27:07;;;;;;;21.52;9.60;;;;;;;-2.55;100.00;101105.84;5153705;27;20505;-65
2022/03/20 01:29:34;;;;;;;19.67;8.77;;;;;;;-2.57;100.00;101100.69;5154081;27;20043;-65
2022/03/20 01:32:00;;;;;;;22.00;8.80;;;;;;;-2.55;100.00;101106.66;5153695;27;20520;-65
2022/03/20 01:34:27;;;;;;;22.05;9.20;;;;;;;-2.57;100.00;101115.97;5153780;27;20079;-65
2022/03/20 01:36:53;;;;;;;25.25;9.13;;;;;;;-2.61;100.00;101110.25;5153380;27;20194;-65
2022/03/20 01:39:20;;;;;;;18.85;9.35;;;;;;;-2.60;100.00;101109.19;5153523;27;20057;-65
2022/03/20 01:41:47;;;;;;;22.88;8.60;;;;;;;-2.66;100.00;101107.44;5153899;27;20047;-65
2022/03/20 01:44:13;;;;;;;22.20;8.82;;;;;;;-2.61;100.00;101112.94;5153567;27;20054;-65
2022/03/20 01:46:40;;;;;;;24.05;9.48;;;;;;;-2.65;100.00;101119.81;5153735;27;20054;-65
2022/03/20 01:49:06;;;;;;;19.90;8.85;;;;;;;-2.67;100.00;101124.59;5153485;27;20042;-65
2022/03/20 01:54:17;;;;;;;25.38;9.88;;;;;;;-2.74;100.00;101121.19;5153373;27;20511;-65
2022/03/20 01:56:46;;;;;;;20.02;9.25;;;;;;;-2.75;100.00;101127.59;5153369;27;20050;-65
2022/03/20 01:59:12;;;;;;;17.92;8.32;;;;;;;-2.77;100.00;101133.19;5153305;27;20055;-65
2022/03/20 02:01:38;;;;;;;19.35;8.77;;;;;;;-2.80;100.00;101128.28;5153314;27;20146;-65
2022/03/20 02:04:05;;;;;;;22.50;9.75;;;;;;;-2.77;100.00;101135.06;5153209;27;20064;-65
2022/03/20 02:06:31;;;;;;;16.48;8.15;;;;;;;-2.80;100.00;101143.56;5153355;27;20055;-65
2022/03/20 02:08:58;;;;;;;18.05;7.88;;;;;;;-2.78;100.00;101150.34;5153242;27;20051;-65
2022/03/20 02:11:25;;;;;;;22.50;8.45;;;;;;;-2.82;100.00;101146.50;5153287;27;20498;-65
2022/03/20 02:13:52;;;;;;;20.48;8.60;;;;;;;-2.82;100.00;101149.19;5153420;27;20051;-65
2022/03/20 02:16:18;;;;;;;19.15;8.00;;;;;;;-2.78;100.00;101153.03;5152940;27;20050;-65
2022/03/20 02:18:46;;;;;;;15.73;8.40;;;;;;;-2.81;100.00;101152.69;5153104;27;20050;-64
2022/03/20 02:21:15;;;;;;;19.50;9.90;;;;;;;-2.76;100.00;101147.47;5152919;27;20145;-65
2022/03/20 02:23:42;;;;;;;22.33;8.32;;;;;;;-2.71;100.00;101152.94;5152568;27;20057;-64
2022/03/20 02:26:09;;;;;;;18.63;9.40;;;;;;;-2.76;100.00;101156.31;5152788;27;20047;-65
2022/03/20 02:28:35;;;;;;;16.35;8.38;;;;;;;-2.75;100.00;101159.81;5153056;27;20141;-65
2022/03/20 02:31:02;;;;;;;20.02;9.30;;;;;;;-2.78;100.00;101162.97;5152837;27;20102;-65
2022/03/20 02:33:29;;;;;;;21.48;9.25;;;;;;;-2.78;100.00;101163.78;5153081;27;20494;-65
2022/03/20 02:35:55;;;;;;;41.28;13.80;;;;;;;-2.75;100.00;101157.94;5152693;27;20137;-65
2022/03/20 02:38:23;;;;;;;24.23;10.35;;;;;;;-2.77;100.00;101169.97;5152804;27;20056;-66
2022/03/20 02:40:51;;;;;;;32.88;9.95;;;;;;;-2.77;100.00;101170.78;5152348;27;20046;-65
2022/03/20 02:43:17;;;;;;;22.05;9.65;;;;;;;-2.83;100.00;101169.03;5152370;27;20047;-65
2022/03/20 02:45:44;;;;;;;25.77;10.57;;;;;;;-2.80;100.00;101171.22;5152533;27;20516;-65
2022/03/20 02:48:10;;;;;;;30.13;11.15;;;;;;;-2.76;100.00;101171.63;5152442;27;20103;-65
2022/03/20 02:50:37;;;;;;;23.20;9.77;;;;;;;-2.80;100.00;101181.16;5152373;27;20046;-65
2022/03/20 02:53:10;;;;;;;23.33;9.57;;;;;;;-2.84;100.00;101186.97;5151986;27;20088;-65
2022/03/20 02:55:38;;;;;;;26.33;10.70;;;;;;;-2.94;100.00;101185.88;5152469;27;20092;-65
2022/03/20 02:58:09;;;;;;;20.80;9.07;;;;;;;-2.92;100.00;101186.47;5152397;27;20047;-65
2022/03/20 03:00:37;;;;;;;20.17;9.32;;;;;;;-2.89;100.00;101188.72;5152632;27;20049;-65
2022/03/20 03:03:06;;;;;;;25.30;9.10;;;;;;;-2.90;100.00;101193.25;5152292;27;20106;-65
2022/03/20 03:05:33;;;;;;;19.80;9.35;;;;;;;-2.86;100.00;101189.06;5152377;27;20053;-65
2022/03/20 03:10:56;;;;;;;26.13;10.73;;;;;;;-2.91;100.00;101180.06;5152060;27;20077;-65
2022/03/20 03:13:23;;;;;;;21.77;8.40;;;;;;;-2.93;100.00;101193.72;5152052;27;20050;-65
2022/03/20 03:15:52;;;;;;;22.95;9.30;;;;;;;-2.95;100.00;101187.75;5151932;27;20051;-65
2022/03/20 03:18:18;;;;;;;23.05;10.45;;;;;;;-2.94;100.00;101201.97;5152103;27;20042;-65
2022/03/20 03:20:45;;;;;;;16.85;8.93;;;;;;;-2.92;100.00;101203.41;5151919;27;20569;-65
2022/03/20 03:23:11;;;;;;;20.83;9.82;;;;;;;-2.97;100.00;101208.59;5152319;27;20417;-65
2022/03/20 03:25:39;;;;;;;25.75;9.27;;;;;;;-2.95;100.00;101217.25;5151951;27;20046;-65
2022/03/20 03:28:06;;;;;;;21.15;10.00;;;;;;;-2.95;100.00;101209.22;5152228;27;20406;-65
2022/03/20 03:30:33;;;;;;;23.42;9.23;;;;;;;-2.94;100.00;101226.94;5151811;27;20049;-65
2022/03/20 03:32:59;;;;;;;30.55;11.05;;;;;;;-2.89;100.00;101232.47;5151735;27;20057;-65
2022/03/20 03:35:44;;;;;;;28.77;10.32;;;;;;;-2.92;100.00;101232.09;5150777;27;20050;-65
2022/03/20 03:38:11;;;;;;;21.55;9.25;;;;;;;-2.96;100.00;101236.28;5151715;27;20042;-66
2022/03/20 03:40:38;;;;;;;40.90;13.93;;;;;;;-2.98;100.00;101239.19;5151582;27;20046;-65
2022/03/20 03:43:04;;;;;;;22.15;9.50;;;;;;;-3.00;100.00;101246.66;5151477;27;20054;-66
2022/03/20 03:45:31;;;;;;;28.95;11.05;;;;;;;-2.97;100.00;101256.09;5151576;27;20054;-65
2022/03/20 03:47:58;;;;;;;17.40;8.02;;;;;;;-3.01;100.00;101257.59;5151365;27;20046;-65
2022/03/20 03:50:24;;;;;;;40.40;12.82;;;;;;;-3.02;100.00;101262.16;5151818;27;20047;-65
2022/03/20 03:52:51;;;;;;;68.40;19.42;;;;;;;-2.98;100.00;101275.94;5150929;27;20050;-65
2022/03/20 03:55:18;;;;;;;56.10;16.38;;;;;;;-3.02;100.00;101288.97;5151278;27;20046;-65
2022/03/20 03:57:45;;;;;;;28.10;11.05;;;;;;;-3.02;100.00;101307.78;5151506;27;20046;-65
2022/03/20 04:00:11;;;;;;;52.85;17.30;;;;;;;-3.03;100.00;101305.28;5151337;27;20051;-65
2022/03/20 04:02:38;;;;;;;34.20;11.43;;;;;;;-3.01;100.00;101309.41;5151294;27;20057;-66
2022/03/20 04:05:05;;;;;;;32.47;13.18;;;;;;;-3.02;100.00;101320.38;5151319;27;20387;-65
2022/03/20 04:07:32;;;;;;;29.40;10.98;;;;;;;-3.06;100.00;101324.53;5151214;27;20051;-65
2022/03/20 04:09:58;;;;;;;26.08;10.82;;;;;;;-3.06;100.00;101333.41;5151368;27;20050;-65
2022/03/20 04:12:24;;;;;;;28.13;11.25;;;;;;;-3.12;100.00;101326.25;5151234;27;20061;-65
2022/03/20 04:14:51;;;;;;;28.85;11.30;;;;;;;-3.12;100.00;101334.28;5151343;27;20058;-65
2022/03/20 04:17:17;;;;;;;23.50;11.43;;;;;;;-3.14;100.00;101349.78;5151064;27;20061;-65
2022/03/20 04:19:44;;;;;;;25.17;10.30;;;;;;;-3.13;100.00;101364.84;5151284;27;20069;-65
2022/03/20 04:22:10;;;;;;;28.90;10.13;;;;;;;-3.08;100.00;101381.91;5151095;27;20051;-65
2022/03/20 04:24:36;;;;;;;20.83;9.32;;;;;;;-3.09;100.00;101391.00;5150887;27;20051;-65
2022/03/20 04:27:03;;;;;;;27.48;11.13;;;;;;;-3.07;100.00;101412.25;5151090;27;20047;-65
2022/03/20 04:29:30;;;;;;;25.33;10.70;;;;;;;-3.06;100.00;101429.19;5151043;27;20066;-65
2022/03/20 04:31:56;;;;;;;21.02;10.18;;;;;;;-3.12;100.00;101437.06;5150911;27;20133;-65
2022/03/20 04:34:22;;;;;;;25.75;9.75;;;;;;;-3.10;100.00;101472.56;5150928;27;20050;-65
2022/03/20 04:36:50;;;;;;;21.48;9.75;;;;;;;-3.09;100.00;101494.84;5150950;27;20077;-65
2022/03/20 04:39:17;;;;;;;25.42;10.90;;;;;;;-3.00;100.00;101519.53;5150723;27;20421;-65
2022/03/20 04:41:44;;;;;;;20.33;10.30;;;;;;;-2.97;100.00;101529.84;5150725;27;20055;-65
2022/03/20 04:44:12;;;;;;;22.45;10.88;;;;;;;-2.95;100.00;101528.59;5151148;27;20096;-65
2022/03/20 04:46:38;;;;;;;23.33;10.13;;;;;;;-2.84;100.00;101541.31;5152466;27;20062;-65
2022/03/20 05:00:18;;;;;;;21.98;9.55;;;;;;;0.97;100.00;101157.28;5153926;27;20054;-65
2022/03/20 05:02:45;;;;;;;21.90;10.18;;;;;;;1.71;100.00;101094.53;5154013;27;20046;-65
2022/03/20 05:05:11;;;;;;;19.90;9.50;;;;;;;2.41;100.00;101098.75;5154085;27;20049;-65
2022/03/20 05:07:38;;;;;;;20.35;10.50;;;;;;;2.79;100.00;101157.16;5154283;27;20050;-65
2022/03/20 05:15:36;;;;;;;19.45;10.27;;;;;;;4.34;100.00;101319.22;5154164;27;20082;-64
2022/03/20 05:18:02;;;;;;;22.67;11.55;;;;;;;4.70;100.00;101339.88;5153943;27;20059;-65
2022/03/20 05:20:28;;;;;;;27.05;10.95;;;;;;;5.07;100.00;101381.44;5153921;27;20502;-65
2022/03/20 05:22:55;;;;;;;26.58;10.77;;;;;;;5.37;100.00;101402.31;5153726;27;20093;-65
2022/03/20 05:25:22;;;;;;;24.90;11.20;;;;;;;5.82;100.00;101444.91;5153847;27;20426;-65
2022/03/20 05:27:48;;;;;;;19.67;11.10;;;;;;;6.04;100.00;101460.94;5153652;27;20047;-65
2022/03/20 05:30:15;;;;;;;20.83;11.52;;;;;;;6.25;100.00;101479.91;5153538;27;20050;-65
2022/03/20 05:32:41;;;;;;;19.45;11.20;;;;;;;6.51;100.00;101478.69;5153547;27;20077;-65
2022/03/20 05:35:09;;;;;;;20.48;11.82;;;;;;;6.87;100.00;101510.38;5153638;27;20057;-65
2022/03/20 05:37:35;;;;;;;23.13;12.10;;;;;;;7.10;100.00;101498.78;5153304;27;20057;-65
2022/03/20 05:40:03;;;;;;;26.20;12.38;;;;;;;7.44;100.00;101534.22;5153573;27;20055;-65
2022/03/20 05:42:30;;;;;;;24.52;12.55;;;;;;;7.55;100.00;101537.69;5153798;27;20046;-65
2022/03/20 05:44:56;;;;;;;27.45;12.90;;;;;;;7.96;100.00;101540.84;5153226;27;20074;-65
2022/03/20 05:47:22;;;;;;;22.05;12.10;;;;;;;7.84;100.00;101578.66;5153827;27;20084;-65
2022/03/20 05:49:49;;;;;;;24.45;11.82;;;;;;;8.18;100.00;101566.84;5153276;27;20057;-66
2022/03/20 05:52:15;;;;;;;38.25;14.48;;;;;;;8.21;100.00;101569.81;5152916;27;20433;-65
2022/03/20 05:54:42;;;;;;;35.60;12.68;;;;;;;8.38;100.00;101565.81;5153248;27;20047;-65
2022/03/20 05:59:54;;;;;;;22.55;11.82;;;;;;;8.80;100.00;101584.16;5153362;27;20170;-65
2022/03/20 06:02:21;;;;;;;31.23;12.73;;;;;;;8.85;100.00;101605.97;5153188;27;20050;-65
2022/03/20 06:04:47;;;;;;;20.70;11.45;;;;;;;8.89;100.00;101604.28;5153177;27;20075;-65
2022/03/20 06:07:14;;;;;;;21.05;11.80;;;;;;;9.26;100.00;101593.63;5152987;27;20055;-65
2022/03/20 06:09:40;;;;;;;22.40;10.70;;;;;;;9.41;95.25;101624.34;5153382;27;20134;-65
2022/03/20 06:12:08;;;;;;;17.65;10.95;;;;;;;9.41;96.05;101627.09;5153089;27;20051;-65
2022/03/20 06:14:35;;;;;;;18.42;10.50;;;;;;;9.66;91.91;101634.09;5153097;27;20043;-65
2022/03/20 06:17:02;;;;;;;25.45;11.00;;;;;;;9.85;89.72;101655.97;5153056;27;20464;-65
2022/03/20 06:19:28;;;;;;;26.02;10.93;;;;;;;10.06;88.61;101655.63;5152988;27;20069;-65
2022/03/20 06:21:55;;;;;;;19.65;10.73;;;;;;;10.14;86.67;101658.50;5152630;27;20065;-65
2022/03/20 06:24:21;;;;;;;18.58;10.38;;;;;;;10.48;85.92;101664.78;5153002;27;20051;-65
2022/03/20 06:26:47;;;;;;;18.35;11.27;;;;;;;10.71;83.10;101666.53;5153176;27;20095;-65
2022/03/20 06:29:13;;;;;;;24.60;11.65;;;;;;;10.73;83.34;101672.53;5153009;27;20053;-64
2022/03/20 06:31:41;;;;;;;18.83;10.60;;;;;;;10.97;82.93;101677.00;5152821;27;20050;-65
2022/03/20 06:34:08;;;;;;;23.65;11.43;;;;;;;11.21;81.02;101672.06;5153011;27;20612;-65
2022/03/20 06:36:35;;;;;;;19.38;10.88;;;;;;;11.66;79.66;101679.56;5152380;27;20046;-65
2022/03/20 06:39:02;;;;;;;19.17;11.82;;;;;;;11.92;78.68;101683.38;5152869;27;20355;-65
2022/03/20 06:41:28;;;;;;;21.30;11.30;;;;;;;12.08;76.30;101686.56;5153084;27;20043;-65
2022/03/20 06:43:55;;;;;;;16.98;10.98;;;;;;;12.32;75.76;101688.16;5152353;27;20054;-65
2022/03/20 06:46:21;;;;;;;23.30;12.63;;;;;;;12.42;76.10;101687.88;5152755;27;20141;-65
2022/03/20 06:48:48;;;;;;;20.35;12.13;;;;;;;12.44;76.70;101682.88;5152346;27;20055;-65
2022/03/20 06:51:17;;;;;;;27.48;12.35;;;;;;;12.67;75.41;101680.88;5152338;27;20051;-64
2022/03/20 06:53:43;;;;;;;25.02;13.10;;;;;;;12.87;74.69;101680.31;5152251;27;20046;-64
2022/03/20 06:56:09;;;;;;;20.92;12.07;;;;;;;13.14;74.49;101689.47;5152163;27;20055;-65
2022/03/20 06:58:35;;;;;;;20.17;12.05;;;;;;;13.26;72.79;101691.59;5152353;27;20046;-64
2022/03/20 07:01:02;;;;;;;18.45;11.23;;;;;;;13.40;73.25;101684.84;5152312;27;20054;-64
2022/03/20 07:03:28;;;;;;;19.88;12.15;;;;;;;13.64;72.62;101689.06;5152236;27;20429;-64
2022/03/20 07:05:55;;;;;;;24.92;12.88;;;;;;;13.69;70.54;101685.31;5152242;27;20497;-64
2022/03/20 07:08:21;;;;;;;30.25;12.80;;;;;;;13.91;72.07;101685.16;5152242;27;20047;-64
2022/03/20 07:10:47;;;;;;;19.75;12.50;;;;;;;14.13;71.30;101682.22;5150791;27;20051;-64
2022/03/20 07:15:58;;;;;;;;;;;;;;;14.34;70.93;101678.75;5152476;27;20141;-64
2022/03/20 07:18:25;;;;;;;30.48;12.85;;;;;;;14.80;70.32;101679.91;5151850;27;19923;-64
2022/03/20 07:20:51;;;;;;;22.23;12.88;;;;;;;14.61;69.62;101683.06;5151773;27;20111;-64
2022/03/20 07:23:18;;;;;;;21.25;12.55;;;;;;;14.41;69.83;101684.56;5151760;27;20106;-64
2022/03/20 07:31:14;;;;;;;23.13;12.90;;;;;;;15.15;68.95;101674.19;5151518;27;20546;-64
2022/03/20 07:33:41;;;;;;;22.05;12.50;;;;;;;15.21;68.88;101664.56;5151894;27;20482;-63
2022/03/20 07:36:08;;;;;;;18.60;13.13;;;;;;;15.37;68.37;101671.13;5151572;27;20479;-64
2022/03/20 07:38:35;;;;;;;23.88;13.52;;;;;;;15.30;68.39;101673.59;5151499;27;20050;-64
2022/03/20 07:41:02;;;;;;;19.13;11.73;;;;;;;15.39;68.28;101679.84;5151750;27;20058;-64
2022/03/20 07:43:28;;;;;;;26.75;13.73;;;;;;;15.62;67.99;101674.81;5151632;27;20050;-64
2022/03/20 07:45:56;;;;;;;20.52;12.30;;;;;;;16.01;68.43;101672.69;5151207;27;20046;-64
2022/03/20 07:48:23;;;;;;;22.42;13.02;;;;;;;16.43;67.45;101667.06;5151198;27;20054;-64
2022/03/20 07:50:50;;;;;;;25.25;13.43;;;;;;;16.34;66.68;101677.41;5151263;27;20058;-64
2022/03/20 07:53:17;;;;;;;23.27;12.95;;;;;;;16.44;66.39;101674.19;5151043;27;20099;-64
2022/03/20 07:55:45;;;;;;;23.05;12.73;;;;;;;16.56;66.97;101676.16;5151245;27;20506;-64
2022/03/20 07:58:13;;;;;;;25.90;13.90;;;;;;;16.38;66.12;101667.25;5151235;27;20613;-64
2022/03/20 08:00:39;;;;;;;21.00;13.90;;;;;;;16.30;66.33;101670.94;5151182;27;20538;-64
2022/03/20 08:03:06;;;;;;;20.40;13.52;;;;;;;16.32;66.57;101672.19;5151275;27;20051;-64
2022/03/20 08:05:33;;;;;;;20.35;12.25;;;;;;;16.15;65.89;101672.41;5151279;27;20057;-64
2022/03/20 08:08:02;;;;;;;22.25;13.20;;;;;;;16.09;66.45;101674.56;5151315;27;20046;-64
2022/03/20 08:10:29;;;;;;;22.73;13.10;;;;;;;16.29;66.21;101672.88;5151280;27;20087;-64
2022/03/20 08:12:57;;;;;;;17.75;12.95;;;;;;;16.50;66.92;101672.03;5151003;27;20050;-64
2022/03/20 08:15:24;;;;;;;20.90;13.13;;;;;;;16.58;66.78;101665.56;5151558;27;20043;-64
2022/03/20 08:17:53;;;;;;;20.65;12.77;;;;;;;16.60;66.48;101664.06;5150934;27;20054;-64
2022/03/20 08:20:21;;;;;;;18.73;13.93;;;;;;;16.63;67.05;101668.13;5151023;27;20057;-64
2022/03/20 08:22:49;;;;;;;24.02;14.02;;;;;;;16.73;67.50;101670.44;5154514;27;20138;-64
2022/03/20 08:25:20;;;;;;;24.00;13.38;;;;;;;16.93;67.26;101664.00;5154880;27;20103;-64
2022/03/20 08:27:49;;;;;;;21.10;14.40;;;;;;;16.84;65.92;101670.81;5154785;27;20059;-64
2022/03/20 08:30:18;;;;;;;23.20;13.93;;;;;;;16.39;67.82;101661.41;5154704;27;20051;-64
2022/03/20 08:32:47;;;;;;;20.77;13.55;;;;;;;16.53;67.41;101661.06;5154465;27;20058;-64
2022/03/20 08:35:19;;;;;;;20.95;13.38;;;;;;;16.62;67.22;101664.50;5154412;27;20050;-65
2022/03/20 08:37:47;;;;;;;19.85;13.00;;;;;;;16.29;67.45;101655.47;5154370;27;20047;-64
2022/03/20 08:40:16;;;;;;;21.60;13.05;;;;;;;15.96;68.19;101667.38;5154549;27;20402;-64
2022/03/20 08:42:44;;;;;;;19.20;13.60;;;;;;;15.80;69.17;101652.59;5154537;27;20159;-64
2022/03/20 08:45:12;;;;;;;20.20;12.70;;;;;;;15.98;69.29;101646.53;5154284;27;20133;-63
2022/03/20 08:47:39;;;;;;;19.25;13.52;;;;;;;16.09;68.91;101649.66;5154558;27;20487;-64
2022/03/20 08:50:08;;;;;;;17.25;11.90;;;;;;;16.32;69.10;101650.06;5154190;27;20050;-63
2022/03/20 08:52:35;;;;;;;21.17;12.50;;;;;;;16.31;67.76;101642.91;5153598;27;20047;-63
2022/03/20 08:55:09;;;;;;;19.55;12.82;;;;;;;16.44;69.11;101638.22;5154129;27;20051;-64
2022/03/20 08:57:37;;;;;;;21.15;13.10;;;;;;;16.68;67.45;101652.06;5154109;27;20058;-64
2022/03/20 09:00:05;;;;;;;21.23;12.20;;;;;;;16.46;68.19;101644.19;5154706;27;20467;-64
2022/03/20 09:02:32;;;;;;;25.50;13.65;;;;;;;16.42;68.70;101644.06;5154265;27;20090;-64
2022/03/20 09:04:59;;;;;;;18.55;12.02;;;;;;;16.32;68.12;101650.06;5154455;27;20058;-63
2022/03/20 09:07:26;;;;;;;19.20;12.75;;;;;;;16.29;68.08;101645.22;5154343;27;20061;-63
2022/03/20 09:09:53;;;;;;;16.02;12.18;;;;;;;16.18;67.56;101642.06;5154364;27;20051;-64
2022/03/20 09:12:20;;;;;;;18.52;11.98;;;;;;;16.08;67.52;101650.00;5153871;27;20047;-64
2022/03/20 09:14:46;;;;;;;16.60;12.18;;;;;;;16.17;67.82;101647.97;5154176;27;20047;-64
2022/03/20 09:19:59;;;;;;;17.33;12.48;;;;;;;16.28;66.64;101651.91;5154125;27;20049;-64
2022/03/20 09:22:26;;;;;;;16.67;12.63;;;;;;;16.03;67.34;101637.22;5153705;27;20083;-64
2022/03/20 09:24:52;;;;;;;19.45;13.40;;;;;;;16.17;68.38;101636.91;5153759;27;20055;-64
2022/03/20 09:27:19;;;;;;;21.38;12.05;;;;;;;16.08;67.50;101642.50;5153719;27;20577;-64
2022/03/20 09:29:45;;;;;;;17.58;12.70;;;;;;;15.69;68.00;101643.88;5153774;27;20055;-64
2022/03/20 09:32:12;;;;;;;20.85;12.48;;;;;;;15.06;68.80;101639.16;5153295;27;20047;-64
2022/03/20 09:34:39;;;;;;;15.55;13.25;;;;;;;14.63;70.61;101638.56;5153185;27;20405;-63
2022/03/20 09:37:06;;;;;;;16.85;10.90;;;;;;;14.84;71.24;101631.16;5153367;27;20047;-64
2022/03/20 09:39:32;;;;;;;15.60;11.18;;;;;;;15.29;70.76;101630.50;5153303;27;20137;-64
2022/03/20 09:42:02;;;;;;;22.92;11.63;;;;;;;15.43;69.94;101627.50;5153560;27;20050;-64
2022/03/20 09:44:33;;;;;;;17.45;11.52;;;;;;;15.59;69.44;101633.19;5153286;27;20055;-63
2022/03/20 09:46:59;;;;;;;21.10;12.43;;;;;;;15.36;69.08;101625.28;5153726;27;20051;-63
2022/03/20 09:49:26;;;;;;;18.45;11.90;;;;;;;15.15;69.24;101632.75;5153488;27;20047;-63
2022/03/20 09:51:52;;;;;;;16.38;12.50;;;;;;;15.15;69.97;101624.44;5152995;27;20051;-64
2022/03/20 09:54:20;;;;;;;21.60;12.15;;;;;;;15.28;69.36;101626.94;5153614;27;20046;-64
2022/03/20 09:56:50;;;;;;;17.02;11.27;;;;;;;15.23;70.24;101627.16;5153105;27;20421;-63
2022/03/20 09:59:17;;;;;;;17.50;11.95;;;;;;;15.21;69.57;101629.44;5153499;27;20082;-63
2022/03/20 10:01:43;;;;;;;14.82;11.00;;;;;;;15.20;70.09;101622.31;5153372;27;20064;-64
2022/03/20 10:04:11;;;;;;;19.63;12.32;;;;;;;15.20;70.10;101610.44;5153458;27;20429;-64
2022/03/20 10:06:39;;;;;;;17.05;12.27;;;;;;;15.11;69.68;101609.69;5152979;27;20557;-64
2022/03/20 10:09:08;;;;;;;15.50;13.20;;;;;;;15.06;70.93;101608.75;5153050;27;20055;-64
2022/03/20 10:11:39;;;;;;;17.52;10.75;;;;;;;14.85;71.90;101607.09;5152949;27;20050;-63
2022/03/20 10:14:10;;;;;;;16.13;10.93;;;;;;;14.97;72.21;101601.66;5152761;27;20047;-64
2022/03/20 10:16:38;;;;;;;14.75;11.35;;;;;;;14.90;70.36;101602.19;5152795;27;20046;-64
2022/03/20 10:19:26;;;;;;;16.45;10.85;;;;;;;14.93;70.97;101601.53;5152677;27;20047;-64
2022/03/20 10:21:54;;;;;;;13.60;10.45;;;;;;;14.63;71.71;101608.19;5153070;27;20047;-65
2022/03/20 10:24:22;;;;;;;17.33;11.55;;;;;;;14.41;71.85;101599.00;5152658;27;20137;-64
2022/03/20 10:27:02;;;;;;;15.38;12.68;;;;;;;14.47;72.21;101589.41;5152915;27;20046;-63
2022/03/20 10:29:30;;;;;;;12.77;9.10;;;;;;;14.50;72.69;101594.31;5152730;27;20053;-64
2022/03/20 10:32:00;;;;;;;14.63;10.70;;;;;;;14.51;71.97;101595.09;5152650;27;20049;-63
2022/03/20 10:34:26;;;;;;;19.27;10.73;;;;;;;14.19;73.50;101580.75;5152817;27;20553;-63
2022/03/20 10:36:53;;;;;;;15.98;10.55;;;;;;;14.28;74.47;101575.22;5152424;27;20089;-64
2022/03/20 10:39:22;;;;;;;16.42;11.27;;;;;;;14.13;73.15;101584.84;5152654;27;20096;-64
2022/03/20 10:41:49;;;;;;;13.40;9.98;;;;;;;13.79;73.75;101577.47;5152516;27;20535;-64
2022/03/20 10:44:18;;;;;;;15.88;12.50;;;;;;;13.77;74.41;101574.25;5152271;27;20146;-64
2022/03/20 10:46:56;;;;;;;14.20;9.40;;;;;;;13.77;73.53;101571.50;5152322;27;20081;-63
2022/03/20 10:49:24;;;;;;;13.68;9.40;;;;;;;13.57;74.33;101578.50;5152529;27;20129;-64
2022/03/20 10:52:01;;;;;;;15.75;10.30;;;;;;;13.60;73.89;101570.38;5152059;27;20067;-63
2022/03/20 10:54:39;;;;;;;14.98;10.18;;;;;;;13.73;74.34;101567.75;5152463;27;20055;-64
2022/03/20 10:57:06;;;;;;;17.58;10.20;;;;;;;13.96;74.41;101569.19;5152508;27;20055;-64
2022/03/20 10:59:33;;;;;;;16.50;10.40;;;;;;;14.09;73.51;101561.81;5152239;27;20089;-64
2022/03/20 11:02:00;;;;;;;19.10;11.07;;;;;;;13.92;73.16;101559.91;5152561;27;20050;-63
2022/03/20 11:04:27;;;;;;;17.10;10.82;;;;;;;14.04;74.94;101549.03;5152049;27;20560;-64
2022/03/20 11:06:55;;;;;;;16.90;11.05;;;;;;;13.91;74.86;101547.28;5152377;27;20097;-64
2022/03/20 11:09:22;;;;;;;16.15;11.02;;;;;;;13.88;74.79;101547.94;5151981;27;20050;-64
2022/03/20 11:11:51;;;;;;;17.38;9.75;;;;;;;13.88;76.25;101534.16;5151937;27;20089;-64
2022/03/20 11:14:19;;;;;;;16.45;9.93;;;;;;;13.79;74.41;101549.91;5151941;27;20046;-63
2022/03/20 11:16:48;;;;;;;16.98;11.05;;;;;;;13.78;74.87;101540.81;5152141;27;20082;-64
2022/03/20 11:19:17;;;;;;;15.82;9.95;;;;;;;13.78;75.91;101542.78;5152391;27;20066;-64
2022/03/20 11:21:47;;;;;;;14.60;9.98;;;;;;;13.65;74.75;101536.31;5151770;27;20101;-64
2022/03/20 11:24:16;;;;;;;14.48;10.15;;;;;;;13.08;75.33;101540.06;5152019;27;20497;-65
2022/03/20 11:26:44;;;;;;;17.35;10.27;;;;;;;12.51;77.19;101531.09;5151518;27;20071;-64
2022/03/20 11:29:13;;;;;;;14.00;9.95;;;;;;;12.07;79.30;101528.22;5152506;27;20554;-64
2022/03/20 11:31:40;;;;;;;17.75;10.38;;;;;;;11.91;81.70;101513.28;5151980;27;20061;-64
2022/03/20 11:34:08;;;;;;;18.23;10.07;;;;;;;11.82;83.99;101504.94;5151891;27;20053;-64
2022/03/20 11:37:03;;;;;;;15.98;9.23;;;;;;;11.70;85.79;101497.31;5151483;27;20043;-65
2022/03/20 11:39:29;;;;;;;12.50;9.02;;;;;;;11.37;86.35;101501.47;5151825;27;20057;-64
2022/03/20 11:42:20;;;;;;;16.58;9.05;;;;;;;11.12;87.63;101487.22;5151560;27;20042;-65
2022/03/20 11:44:52;;;;;;;16.30;9.02;;;;;;;10.84;89.58;101481.84;5151564;27;20421;-64
2022/03/20 11:47:27;;;;;;;15.82;10.02;;;;;;;10.54;90.62;101477.06;5152046;27;20050;-64